Minneapolis, Minnesota
Traffic Map
Current Weather Conditions
Minneapolis, Minnesota
Clear Haze
Clear
32°
Feels Like: 26°
Wind Chill: 26° Ceiling: Unl
Heat Index: 32° Visibility: 6mi
Dew Point: 29° Wind: 6mph
Humidity: 88% Direction: 140° (SE)
Pressure: 29.82in Gusts: 0mph
Raw Report DataKMSP 190753Z 14005KT 6SM BR CLR 00/M02 A2982 RMK AO2 SLP106 T00001017
Traffic Incident Summary
Active as of:
Severity:
Category:
InformationThere was an issue retrieving the traffic information for this location. Please try a different location or try again shortly.
Advertisements
Track Severe Weather on mobile